Time;durP1;ratioP1;P1;durP2;ratioP2;P2;SDS_P1;SDS_P2;PMS_P1;PMS_P2;Temp;Humidity;BMP_temperature;BMP_pressure;BME280_temperature;BME280_humidity;BME280_pressure;Samples;Min_cycle;Max_cycle;Signal;HPM_P1;HPM_P2
2022/04/22 00:01:24;;;;;;;8.80;2.90;;;19.20;50.20;;;;;;4354407;32;20091;-65
2022/04/22 00:03:50;;;;;;;12.43;3.13;;;19.20;50.10;;;;;;4354002;32;20491;-65
2022/04/22 00:06:16;;;;;;;7.85;2.50;;;19.20;50.10;;;;;;4354108;32;20170;-65
2022/04/22 00:08:42;;;;;;;6.63;2.58;;;19.20;50.10;;;;;;4354187;32;20080;-65
2022/04/22 00:13:54;;;;;;;7.07;2.78;;;19.20;50.10;;;;;;4354386;32;20222;-65
2022/04/22 00:16:21;;;;;;;7.13;2.67;;;19.20;50.10;;;;;;4354069;32;20096;-65
2022/04/22 00:18:46;;;;;;;6.35;2.47;;;19.10;50.10;;;;;;4354052;32;20127;-65
2022/04/22 00:21:12;;;;;;;8.48;2.58;;;19.10;50.10;;;;;;4354053;32;20072;-65
2022/04/22 00:23:38;;;;;;;7.35;2.22;;;19.10;50.10;;;;;;4353639;32;20089;-65
2022/04/22 00:26:04;;;;;;;8.25;2.30;;;19.10;50.10;;;;;;4329279;32;20131;-65
2022/04/22 00:28:30;;;;;;;6.45;2.50;;;19.10;50.10;;;;;;4324327;33;20072;-65
2022/04/22 00:30:56;;;;;;;7.07;2.65;;;19.10;50.00;;;;;;4324363;33;20518;-66
2022/04/22 00:33:22;;;;;;;6.10;2.30;;;19.10;50.10;;;;;;4324383;33;20076;-66
2022/04/22 00:35:48;;;;;;;7.68;2.35;;;19.10;50.10;;;;;;4324435;33;20484;-66
2022/04/22 00:38:15;;;;;;;5.38;2.35;;;19.10;50.10;;;;;;4324217;33;20725;-65
2022/04/22 00:40:41;;;;;;;6.15;2.25;;;19.10;50.00;;;;;;4324167;33;20104;-65
2022/04/22 00:43:22;;;;;;;5.57;2.55;;;19.10;50.00;;;;;;4324044;33;20116;-65
2022/04/22 00:45:48;;;;;;;8.50;2.30;;;19.10;50.00;;;;;;4324525;33;20076;-65
2022/04/22 00:48:15;;;;;;;6.25;2.35;;;19.10;51.00;;;;;;4324341;33;20089;-65
2022/04/22 00:50:42;;;;;;;8.43;2.58;;;19.10;50.00;;;;;;4311423;33;20456;-65
2022/04/22 00:53:09;;;;;;;7.88;2.78;;;19.10;50.10;;;;;;4326149;33;20151;-65
2022/04/22 00:55:37;;;;;;;6.55;2.38;;;19.10;50.10;;;;;;4312435;33;20495;-65
2022/04/22 00:58:04;;;;;;;5.20;1.88;;;19.10;50.10;;;;;;4324470;33;20415;-65
2022/04/22 01:00:30;;;;;;;7.18;2.17;;;19.10;50.00;;;;;;4326594;33;20527;-65
2022/04/22 01:02:56;;;;;;;8.30;2.28;;;19.00;50.90;;;;;;4327013;33;20538;-65
2022/04/22 01:10:53;;;;;;;5.55;2.03;;;19.00;50.00;;;;;;4324182;33;20136;-65
2022/04/22 01:13:20;;;;;;;4.53;1.88;;;19.00;50.00;;;;;;4324194;33;20418;-65
2022/04/22 01:15:46;;;;;;;6.20;2.20;;;19.00;50.10;;;;;;4324077;33;20096;-64
2022/04/22 01:18:16;;;;;;;4.10;1.85;;;19.00;50.00;;;;;;4324254;33;20099;-65
2022/04/22 01:20:42;;;;;;;4.07;1.98;;;19.00;50.10;;;;;;4311602;33;20191;-64
2022/04/22 01:23:08;;;;;;;7.40;2.20;;;19.00;50.00;;;;;;4323854;33;20144;-64
2022/04/22 01:25:34;;;;;;;5.13;1.95;;;19.00;50.10;;;;;;4323602;33;20089;-65
2022/04/22 01:28:01;;;;;;;5.05;1.90;;;19.00;50.10;;;;;;4324062;33;20092;-66
2022/04/22 01:30:28;;;;;;;6.60;2.00;;;19.00;50.00;;;;;;4324032;33;20140;-65
2022/04/22 01:32:56;;;;;;;4.05;1.80;;;19.00;50.10;;;;;;4323797;33;20219;-64
2022/04/22 01:35:23;;;;;;;3.90;1.73;;;19.00;50.10;;;;;;4324010;33;20097;-65
2022/04/22 01:37:49;;;;;;;3.92;1.98;;;19.00;50.10;;;;;;4324158;33;20132;-64
2022/04/22 01:40:17;;;;;;;5.75;2.00;;;19.00;50.10;;;;;;4323764;33;20246;-65
2022/04/22 01:42:43;;;;;;;4.45;1.92;;;19.00;50.10;;;;;;4324009;33;20096;-65
2022/04/22 01:45:09;;;;;;;6.53;1.85;;;18.90;50.00;;;;;;4324109;33;20065;-64
2022/04/22 01:47:35;;;;;;;3.78;1.70;;;18.90;50.00;;;;;;4324004;33;20069;-65
2022/04/22 01:50:02;;;;;;;4.15;1.92;;;19.00;50.10;;;;;;4324613;33;20138;-65
2022/04/22 01:52:29;;;;;;;6.65;1.90;;;18.90;50.00;;;;;;4326434;33;20172;-65
2022/04/22 01:54:56;;;;;;;3.47;1.90;;;18.90;50.00;;;;;;4326002;33;20726;-65
2022/04/22 01:57:22;;;;;;;5.85;1.88;;;18.90;50.00;;;;;;4313033;33;20246;-65
2022/04/22 01:59:49;;;;;;;5.65;1.80;;;18.90;50.10;;;;;;4313481;33;20103;-65
2022/04/22 02:02:16;;;;;;;4.78;1.80;;;18.90;50.10;;;;;;4326513;33;20090;-64
2022/04/22 02:04:42;;;;;;;3.60;1.77;;;18.90;50.10;;;;;;4326551;33;20077;-65
2022/04/22 02:07:08;;;;;;;3.80;2.05;;;18.90;50.10;;;;;;4312847;33;20173;-64
2022/04/22 02:09:34;;;;;;;4.13;1.58;;;18.90;50.10;;;;;;4326312;33;20097;-65
2022/04/22 02:12:00;;;;;;;4.93;1.65;;;18.90;50.10;;;;;;4326258;33;20096;-64
2022/04/22 02:14:26;;;;;;;4.13;1.80;;;18.90;50.10;;;;;;4326216;33;20073;-64
2022/04/22 02:16:52;;;;;;;4.18;1.70;;;18.90;50.10;;;;;;4312611;33;20088;-65
2022/04/22 02:19:18;;;;;;;5.00;1.92;;;18.90;50.20;;;;;;4326221;33;20155;-65
2022/04/22 02:21:45;;;;;;;4.07;1.50;;;18.80;50.00;;;;;;4326272;33;20235;-65
2022/04/22 02:24:11;;;;;;;5.43;1.77;;;18.90;50.10;;;;;;4325766;33;20096;-65
2022/04/22 02:29:26;;;;;;;4.70;1.48;;;18.80;50.00;;;;;;4304708;33;20099;-64
2022/04/22 02:31:52;;;;;;;3.83;1.70;;;18.80;50.00;;;;;;4326136;33;20199;-65
2022/04/22 02:34:22;;;;;;;3.70;1.27;;;18.80;50.00;;;;;;4325956;33;20491;-65
2022/04/22 02:36:49;;;;;;;4.60;1.45;;;18.80;50.10;;;;;;4312784;33;20180;-65
2022/04/22 02:39:15;;;;;;;3.13;1.52;;;18.80;50.00;;;;;;4326114;33;20221;-64
2022/04/22 02:47:11;;;;;;;3.50;1.50;;;18.80;50.10;;;;;;4325527;33;20080;-65
2022/04/22 02:49:38;;;;;;;3.22;1.70;;;18.80;50.00;;;;;;4312239;33;20127;-64
2022/04/22 02:52:05;;;;;;;4.07;1.48;;;18.80;50.00;;;;;;4325626;33;20073;-64
2022/04/22 02:54:31;;;;;;;4.55;1.42;;;18.80;50.00;;;;;;4325346;33;20221;-64
2022/04/22 02:56:59;;;;;;;4.45;1.70;;;18.70;50.00;;;;;;4325553;33;20160;-65
2022/04/22 02:59:25;;;;;;;2.92;1.58;;;18.70;50.00;;;;;;4325642;33;20103;-65
2022/04/22 03:01:51;;;;;;;2.70;1.60;;;18.70;50.00;;;;;;4325297;33;20092;-64
2022/04/22 03:04:18;;;;;;;3.97;1.52;;;18.70;50.00;;;;;;4325220;33;20266;-65
2022/04/22 03:06:44;;;;;;;2.25;1.25;;;18.70;50.00;;;;;;4325496;33;20092;-64
2022/04/22 03:09:10;;;;;;;2.53;1.38;;;18.70;50.00;;;;;;4325793;33;20085;-64
2022/04/22 03:11:35;;;;;;;5.35;2.08;;;18.70;50.00;;;;;;4325490;33;20180;-65
2022/04/22 03:14:03;;;;;;;3.85;1.35;;;18.80;50.00;;;;;;4325225;33;20275;-65
2022/04/22 03:16:29;;;;;;;4.15;1.60;;;18.70;50.00;;;;;;4325101;33;20168;-64
2022/04/22 03:18:55;;;;;;;4.60;1.67;;;18.70;50.00;;;;;;4312282;33;20542;-64
2022/04/22 03:21:22;;;;;;;4.28;1.70;;;18.70;50.00;;;;;;4325365;33;20089;-64
2022/04/22 03:23:48;;;;;;;4.55;1.50;;;18.70;50.00;;;;;;4325087;33;20177;-65
2022/04/22 03:26:14;;;;;;;4.47;1.65;;;18.70;50.00;;;;;;4324981;33;20092;-64
2022/04/22 03:28:40;;;;;;;3.28;1.60;;;18.70;50.00;;;;;;4325209;33;20087;-65
2022/04/22 03:31:06;;;;;;;3.58;1.60;;;18.70;50.00;;;;;;4325239;33;20415;-65
2022/04/22 03:33:32;;;;;;;4.07;1.60;;;18.70;50.00;;;;;;4325055;33;20381;-64
2022/04/22 03:35:58;;;;;;;3.08;1.08;;;18.70;50.00;;;;;;4312085;33;20591;-65
2022/04/22 03:38:24;;;;;;;3.60;1.30;;;18.70;50.00;;;;;;4325157;33;20281;-65
2022/04/22 03:40:51;;;;;;;3.15;1.10;;;18.70;50.00;;;;;;4325043;33;20065;-65
2022/04/22 03:43:19;;;;;;;3.95;1.60;;;18.70;50.00;;;;;;4324989;33;20565;-65
2022/04/22 03:45:45;;;;;;;3.70;1.40;;;18.60;49.90;;;;;;4324681;33;20065;-65
2022/04/22 03:48:13;;;;;;;3.03;1.00;;;18.60;49.90;;;;;;4324600;33;20083;-65
2022/04/22 03:50:39;;;;;;;2.08;1.17;;;18.60;49.90;;;;;;4324976;33;20088;-65
2022/04/22 03:53:06;;;;;;;4.25;1.30;;;18.70;50.00;;;;;;4324556;33;20084;-65
2022/04/22 03:55:32;;;;;;;2.60;1.20;;;18.60;49.90;;;;;;4324221;33;20423;-65
2022/04/22 03:58:10;;;;;;;2.65;1.30;;;18.60;49.90;;;;;;4324608;33;20092;-65
2022/04/22 04:00:41;;;;;;;2.70;1.40;;;18.60;49.90;;;;;;4324799;33;20665;-65
2022/04/22 04:03:26;;;;;;;1.63;1.02;;;18.60;49.90;;;;;;4325026;33;20089;-64
2022/04/22 04:05:52;;;;;;;3.60;1.48;;;18.60;49.90;;;;;;4324779;33;20434;-65
2022/04/22 04:08:19;;;;;;;2.55;1.45;;;18.60;49.90;;;;;;4324659;33;20081;-64
2022/04/22 04:16:15;;;;;;;3.13;1.48;;;18.60;49.90;;;;;;4324789;33;20080;-64
2022/04/22 04:18:41;;;;;;;2.30;1.20;;;18.50;49.90;;;;;;4324610;33;20161;-65
2022/04/22 04:23:55;;;;;;;2.90;1.30;;;18.50;49.90;;;;;;4324445;33;20164;-64
2022/04/22 04:26:24;;;;;;;3.58;1.50;;;18.50;49.90;;;;;;4311324;33;20077;-64
2022/04/22 04:28:50;;;;;;;2.83;1.60;;;18.50;49.90;;;;;;4324552;33;20087;-64
2022/04/22 04:31:17;;;;;;;3.00;1.38;;;18.60;50.00;;;;;;4324535;33;20106;-65
2022/04/22 04:33:43;;;;;;;2.22;1.10;;;18.50;49.90;;;;;;4324448;33;20095;-64
2022/04/22 04:36:10;;;;;;;2.17;1.10;;;18.60;50.00;;;;;;4324210;33;20227;-65
2022/04/22 04:38:37;;;;;;;3.15;1.23;;;18.50;49.90;;;;;;4324415;33;20188;-64
2022/04/22 04:41:04;;;;;;;2.35;1.10;;;18.50;50.00;;;;;;4324481;33;20575;-65
2022/04/22 04:43:31;;;;;;;1.75;1.10;;;18.50;50.00;;;;;;4324459;33;20430;-65
2022/04/22 04:45:56;;;;;;;2.15;1.27;;;18.50;50.00;;;;;;4324424;33;20072;-64
2022/04/22 04:48:22;;;;;;;3.42;1.20;;;18.50;50.00;;;;;;4324247;33;20165;-64
2022/04/22 04:50:51;;;;;;;2.65;1.00;;;18.50;50.00;;;;;;4324325;33;20085;-64
2022/04/22 04:53:20;;;;;;;1.70;1.30;;;18.50;50.00;;;;;;4324122;33;20207;-65
2022/04/22 04:55:46;;;;;;;3.40;1.15;;;18.50;50.00;;;;;;4310999;33;20649;-64
2022/04/22 04:58:12;;;;;;;2.28;1.25;;;18.50;50.00;;;;;;4323842;33;20515;-65
2022/04/22 05:00:38;;;;;;;1.88;0.93;;;18.50;50.00;;;;;;4324296;33;20139;-64
2022/04/22 05:03:05;;;;;;;3.33;1.30;;;18.50;50.00;;;;;;4323974;33;20177;-65
2022/04/22 05:05:31;;;;;;;2.03;1.08;;;18.50;50.00;;;;;;4324257;33;20081;-65
2022/04/22 05:08:00;;;;;;;2.13;1.20;;;18.40;49.90;;;;;;4324188;33;20148;-65
2022/04/22 05:10:30;;;;;;;2.95;1.17;;;18.40;50.00;;;;;;4324226;33;20069;-65
2022/04/22 05:12:57;;;;;;;2.17;1.20;;;18.40;49.90;;;;;;4311184;33;20119;-65
2022/04/22 05:15:24;;;;;;;2.92;1.15;;;18.40;50.00;;;;;;4332482;33;20447;-64
2022/04/22 05:17:51;;;;;;;1.40;0.80;;;18.40;50.00;;;;;;4352087;33;20238;-64
2022/04/22 05:20:18;;;;;;;1.95;1.15;;;18.40;50.00;;;;;;4338680;33;20076;-64
2022/04/22 05:22:45;;;;;;;1.90;1.15;;;18.40;49.90;;;;;;4338789;33;20092;-65
2022/04/22 05:25:12;;;;;;;2.53;1.20;;;18.40;50.00;;;;;;4352532;32;20245;-65
2022/04/22 05:27:38;;;;;;;2.00;0.90;;;18.40;50.00;;;;;;4354818;32;20613;-65
2022/04/22 05:32:51;;;;;;;2.63;1.05;;;18.40;50.00;;;;;;4343552;32;20072;-65
2022/04/22 05:35:19;;;;;;;1.25;0.85;;;18.40;50.00;;;;;;4354682;32;20426;-64
2022/04/22 05:37:51;;;;;;;2.53;1.10;;;18.40;50.00;;;;;;4348910;32;20069;-64
2022/04/22 05:40:21;;;;;;;1.80;1.10;;;18.40;50.00;;;;;;4352767;32;20123;-64
2022/04/22 05:42:47;;;;;;;1.85;1.20;;;18.40;50.00;;;;;;4354392;32;20064;-65
2022/04/22 05:45:15;;;;;;;1.92;0.90;;;18.40;50.00;;;;;;4352521;32;20254;-65
2022/04/22 05:47:42;;;;;;;2.85;1.10;;;18.40;50.90;;;;;;4355603;32;20095;-65
2022/04/22 05:50:10;;;;;;;1.75;0.93;;;18.40;50.00;;;;;;4356072;32;20112;-65
2022/04/22 05:52:37;;;;;;;1.73;0.90;;;18.40;50.00;;;;;;4355522;32;20289;-64
2022/04/22 05:55:05;;;;;;;1.25;0.82;;;18.40;50.00;;;;;;4354191;32;20134;-65
2022/04/22 05:57:32;;;;;;;2.38;1.08;;;18.40;50.90;;;;;;4354473;32;20620;-64
2022/04/22 05:59:59;;;;;;;2.67;1.00;;;18.40;49.90;;;;;;4355014;32;20112;-65
2022/04/22 06:02:26;;;;;;;2.15;0.93;;;18.40;49.90;;;;;;4355615;32;20087;-64
2022/04/22 06:04:52;;;;;;;1.67;0.95;;;18.40;50.00;;;;;;4356193;32;20091;-64
2022/04/22 06:07:19;;;;;;;1.65;0.77;;;18.40;49.90;;;;;;4355831;32;20095;-65
2022/04/22 06:12:30;;;;;;;2.97;1.42;;;18.40;50.00;;;;;;4355792;32;20537;-65
2022/04/22 06:14:59;;;;;;;1.50;0.80;;;18.40;50.00;;;;;;4356464;32;20071;-64
2022/04/22 06:17:27;;;;;;;2.20;0.98;;;18.40;50.00;;;;;;4355855;32;20565;-64
2022/04/22 06:19:53;;;;;;;1.27;0.85;;;18.40;50.00;;;;;;4355761;32;20087;-64
2022/04/22 06:22:19;;;;;;;1.70;0.73;;;18.40;50.00;;;;;;4355674;32;20095;-64
2022/04/22 06:24:45;;;;;;;1.92;0.90;;;18.50;50.10;;;;;;4355482;32;20073;-65
2022/04/22 06:27:11;;;;;;;1.20;0.82;;;18.50;50.10;;;;;;4355737;32;20222;-65
2022/04/22 06:29:37;;;;;;;2.90;1.10;;;18.50;50.10;;;;;;4355333;32;20094;-65
2022/04/22 06:32:04;;;;;;;2.28;1.13;;;18.50;50.10;;;;;;4355590;32;20080;-65
2022/04/22 06:34:30;;;;;;;1.83;0.80;;;18.50;50.10;;;;;;4355464;32;20072;-65
2022/04/22 06:36:57;;;;;;;2.28;0.95;;;18.50;50.10;;;;;;4341398;32;20068;-65
2022/04/22 06:39:23;;;;;;;2.67;1.00;;;18.50;50.10;;;;;;4355192;32;20095;-65
2022/04/22 06:47:22;;;;;;;2.53;1.00;;;18.50;50.10;;;;;;4354301;32;20180;-65
2022/04/22 06:49:48;;;;;;;1.55;0.95;;;18.60;50.00;;;;;;4355329;32;20455;-65
2022/04/22 06:52:14;;;;;;;2.80;0.95;;;18.60;50.80;;;;;;4341675;32;20159;-65
2022/04/22 06:54:40;;;;;;;2.05;0.75;;;18.70;49.70;;;;;;4355024;32;20652;-65
2022/04/22 06:57:06;;;;;;;2.17;1.17;;;18.70;49.70;;;;;;4354910;32;20094;-65
2022/04/22 06:59:32;;;;;;;2.58;1.10;;;18.70;49.60;;;;;;4354986;32;20086;-65
2022/04/22 07:01:58;;;;;;;4.63;1.13;;;18.80;49.60;;;;;;4355097;32;20116;-65
2022/04/22 07:04:24;;;;;;;3.40;1.20;;;18.80;49.50;;;;;;4355097;32;20080;-65
2022/04/22 07:06:51;;;;;;;1.40;0.80;;;18.80;49.40;;;;;;4355191;32;20080;-65
2022/04/22 07:09:17;;;;;;;2.55;0.95;;;18.90;49.40;;;;;;4354800;32;20421;-65
2022/04/22 07:11:44;;;;;;;3.17;1.00;;;18.90;49.20;;;;;;4355113;32;20080;-65
2022/04/22 07:14:11;;;;;;;1.40;0.85;;;18.90;49.20;;;;;;4355051;32;20529;-65
2022/04/22 07:16:43;;;;;;;2.90;1.02;;;18.90;49.10;;;;;;4341547;32;20096;-65
2022/04/22 07:19:09;;;;;;;2.55;1.30;;;18.90;50.00;;;;;;4354883;32;20437;-65
2022/04/22 07:21:35;;;;;;;3.70;1.35;;;19.00;48.90;;;;;;4354879;32;20076;-65
2022/04/22 07:24:01;;;;;;;2.95;1.00;;;19.00;48.90;;;;;;4354451;32;20080;-65
2022/04/22 07:26:27;;;;;;;4.13;1.23;;;19.00;48.80;;;;;;4354718;32;20115;-65
2022/04/22 07:28:57;;;;;;;2.70;1.15;;;19.00;48.80;;;;;;4354771;32;20071;-65
2022/04/22 07:31:27;;;;;;;2.92;1.10;;;19.00;48.70;;;;;;4354313;32;20091;-65
2022/04/22 07:33:54;;;;;;;1.65;1.15;;;19.10;48.70;;;;;;4353678;32;20084;-65
2022/04/22 07:36:20;;;;;;;3.35;1.27;;;19.10;48.70;;;;;;4346120;32;20181;-65
2022/04/22 07:38:46;;;;;;;3.25;1.27;;;19.10;48.60;;;;;;4324960;33;20076;-65
2022/04/22 07:41:18;;;;;;;3.60;1.13;;;19.10;48.50;;;;;;4324837;33;20141;-65
2022/04/22 07:46:47;;;;;;;3.53;1.20;;;19.20;48.50;;;;;;4324885;33;20096;-65
2022/04/22 07:49:14;;;;;;;3.67;1.00;;;19.20;48.40;;;;;;4324765;33;20202;-65
2022/04/22 07:51:40;;;;;;;7.00;1.10;;;19.30;49.40;;;;;;4324974;33;20088;-65
2022/04/22 07:54:08;;;;;;;2.08;1.05;;;19.30;48.40;;;;;;4324615;33;20085;-65
2022/04/22 07:56:33;;;;;;;2.05;0.90;;;19.30;48.30;;;;;;4324726;33;20088;-65
2022/04/22 07:58:59;;;;;;;4.43;1.23;;;19.30;48.30;;;;;;4324843;33;20161;-65
2022/04/22 08:01:26;;;;;;;2.00;1.17;;;19.40;48.20;;;;;;4324497;33;20077;-65
2022/04/22 08:03:53;;;;;;;4.30;1.40;;;19.40;49.20;;;;;;4324791;33;20230;-66
2022/04/22 08:06:19;;;;;;;6.80;1.40;;;19.40;48.30;;;;;;4324564;33;20076;-65
2022/04/22 08:08:46;;;;;;;3.83;1.52;;;19.40;48.30;;;;;;4324359;33;20503;-65
2022/04/22 08:11:11;;;;;;;3.97;1.50;;;19.50;48.40;;;;;;4324604;33;20168;-65
2022/04/22 08:13:38;;;;;;;4.18;1.50;;;19.50;48.30;;;;;;4336154;33;20455;-65
2022/04/22 08:16:04;;;;;;;1.90;1.10;;;19.50;48.30;;;;;;4325315;33;20094;-65
2022/04/22 08:18:30;;;;;;;4.60;1.60;;;19.60;48.50;;;;;;4338400;33;20099;-65
2022/04/22 08:20:55;;;;;;;3.65;1.27;;;19.60;48.50;;;;;;4338305;33;20136;-65
2022/04/22 08:23:22;;;;;;;4.47;1.40;;;19.60;48.50;;;;;;4338622;33;20083;-65
2022/04/22 08:25:48;;;;;;;2.78;1.30;;;19.70;48.50;;;;;;4339220;33;20151;-66
2022/04/22 08:28:14;;;;;;;4.70;1.35;;;19.70;48.50;;;;;;4339161;33;20080;-66
2022/04/22 08:30:40;;;;;;;2.97;1.33;;;19.70;48.40;;;;;;4339368;33;20167;-65
2022/04/22 08:33:06;;;;;;;2.72;1.20;;;19.70;48.20;;;;;;4326010;33;20087;-65
2022/04/22 08:35:35;;;;;;;4.18;1.60;;;19.70;48.20;;;;;;4339046;33;20091;-65
2022/04/22 08:38:03;;;;;;;3.00;1.40;;;19.70;48.20;;;;;;4339173;33;20454;-65
2022/04/22 08:40:31;;;;;;;1.60;1.17;;;19.80;48.30;;;;;;4339226;33;20246;-65
2022/04/22 08:43:00;;;;;;;3.13;1.08;;;19.80;48.30;;;;;;4339207;33;20119;-65
2022/04/22 08:45:27;;;;;;;2.47;1.30;;;19.80;48.20;;;;;;4339120;33;20088;-65
2022/04/22 08:50:42;;;;;;;6.25;1.50;;;19.80;48.20;;;;;;4338881;33;20088;-65
2022/04/22 08:53:11;;;;;;;4.10;1.42;;;19.80;48.20;;;;;;4338874;33;20095;-65
2022/04/22 08:55:39;;;;;;;4.75;1.23;;;19.80;48.20;;;;;;4338743;33;20105;-65
2022/04/22 08:58:05;;;;;;;2.20;1.00;;;19.80;48.10;;;;;;4339013;33;20106;-65
2022/04/22 09:00:36;;;;;;;2.42;1.00;;;19.80;48.10;;;;;;4341144;33;20172;-65
2022/04/22 09:03:03;;;;;;;4.05;1.08;;;19.90;48.20;;;;;;4349067;32;20076;-65
2022/04/22 09:05:34;;;;;;;2.80;1.25;;;19.90;48.20;;;;;;4341984;33;20514;-65
2022/04/22 09:08:01;;;;;;;5.40;1.33;;;19.90;48.20;;;;;;4342231;33;20092;-65
2022/04/22 09:10:27;;;;;;;4.40;1.10;;;19.90;48.10;;;;;;4344156;32;20131;-65
2022/04/22 09:12:56;;;;;;;3.22;1.33;;;19.90;48.10;;;;;;4356602;32;20052;-79
2022/04/22 09:15:27;;;;;;;2.40;1.05;;;19.90;48.20;;;;;;4343270;32;20084;-64
2022/04/22 09:17:57;;;;;;;3.28;1.23;;;19.90;48.10;;;;;;4356963;32;20092;-65
2022/04/22 09:20:31;;;;;;;3.17;1.17;;;19.90;48.10;;;;;;4356630;32;20237;-65
2022/04/22 09:22:57;;;;;;;3.20;1.30;;;19.90;48.10;;;;;;4356703;32;20402;-65
2022/04/22 09:25:25;;;;;;;7.60;1.23;;;19.90;48.00;;;;;;4356301;32;20226;-65
2022/04/22 09:27:51;;;;;;;2.70;1.20;;;19.90;47.90;;;;;;4356412;32;20084;-65
2022/04/22 09:30:17;;;;;;;2.47;1.10;;;20.00;47.90;;;;;;4356241;32;20096;-65
2022/04/22 09:32:45;;;;;;;4.40;1.05;;;20.00;47.90;;;;;;4342819;32;20119;-65
2022/04/22 09:35:16;;;;;;;4.30;1.20;;;20.00;47.80;;;;;;4356509;32;20399;-65
2022/04/22 09:43:45;;;;;;;3.80;1.10;;;20.00;47.70;;;;;;4356236;32;20191;-65
2022/04/22 09:46:30;;;;;;;4.30;1.50;;;20.00;47.70;;;;;;4356418;32;20088;-65
2022/04/22 09:48:56;;;;;;;4.65;1.50;;;20.00;47.60;;;;;;4356269;32;20503;-65
2022/04/22 09:51:26;;;;;;;3.30;1.20;;;20.00;47.60;;;;;;4355987;32;20102;-66
2022/04/22 09:54:09;;;;;;;3.03;1.33;;;20.00;47.60;;;;;;4356236;32;20087;-65
2022/04/22 09:56:37;;;;;;;5.68;1.63;;;20.00;47.50;;;;;;4356316;32;20209;-65
2022/04/22 09:59:22;;;;;;;3.58;1.08;;;20.00;47.50;;;;;;4355943;32;20164;-65
2022/04/22 10:01:49;;;;;;;3.05;1.30;;;20.00;47.50;;;;;;4356130;32;20119;-66
2022/04/22 10:04:19;;;;;;;4.68;1.30;;;20.00;47.50;;;;;;4356125;32;20536;-65
2022/04/22 10:06:46;;;;;;;4.57;1.10;;;20.00;47.50;;;;;;4355962;32;20084;-66
2022/04/22 10:09:16;;;;;;;6.55;1.38;;;20.10;47.60;;;;;;4356075;32;20079;-66
2022/04/22 10:11:44;;;;;;;9.20;1.50;;;20.10;47.60;;;;;;4355266;32;20608;-66
2022/04/22 10:14:11;;;;;;;3.50;1.30;;;20.10;47.60;;;;;;4355904;32;20092;-65
2022/04/22 10:16:37;;;;;;;5.53;1.63;;;20.10;47.90;;;;;;4355931;32;20086;-65
2022/04/22 10:19:05;;;;;;;6.47;1.20;;;20.10;48.00;;;;;;4355927;32;20514;-65
2022/04/22 10:21:31;;;;;;;4.13;1.70;;;20.10;47.80;;;;;;4355558;32;20606;-65
2022/04/22 10:23:58;;;;;;;4.70;1.50;;;20.10;47.80;;;;;;4327662;33;20310;-67
2022/04/22 10:26:27;;;;;;;5.03;1.58;;;20.10;47.80;;;;;;4340064;33;20238;-65
2022/04/22 10:28:55;;;;;;;1.92;1.27;;;20.10;47.90;;;;;;4340036;33;20222;-65
2022/04/22 10:31:23;;;;;;;3.70;1.30;;;20.10;48.10;;;;;;4326648;33;20080;-65
2022/04/22 10:33:49;;;;;;;4.15;1.75;;;20.10;48.10;;;;;;4340149;33;20128;-60
2022/04/22 10:36:19;;;;;;;4.57;1.50;;;20.10;48.10;;;;;;4339461;33;20073;-66
2022/04/22 10:38:49;;;;;;;4.05;1.48;;;20.10;48.10;;;;;;4339929;33;20088;-66
2022/04/22 10:41:21;;;;;;;7.13;1.67;;;20.10;48.10;;;;;;4339965;33;20089;-66
2022/04/22 10:47:13;;;;;;;2.88;1.38;;;20.10;48.10;;;;;;4339909;33;20093;-66
2022/04/22 10:49:38;;;;;;;3.65;1.50;;;20.10;48.10;;;;;;4339671;33;20099;-65
2022/04/22 10:52:11;;;;;;;5.03;1.55;;;20.10;48.00;;;;;;4340060;33;20088;-65
2022/04/22 10:54:52;;;;;;;2.67;1.42;;;20.10;48.00;;;;;;4340266;33;20072;-66
2022/04/22 10:57:27;;;;;;;3.45;1.60;;;20.10;48.20;;;;;;4340251;33;20240;-65
2022/04/22 11:00:11;;;;;;;3.70;1.50;;;20.10;48.10;;;;;;4340485;33;20089;-65
2022/04/22 11:02:40;;;;;;;;;;;20.10;48.20;;;;;;4351575;32;20083;-65
2022/04/22 11:05:20;;;;;;;4.78;1.42;;;20.10;48.10;;;;;;4354500;32;19976;-65
2022/04/22 11:07:56;;;;;;;4.72;1.40;;;20.10;48.00;;;;;;4338637;33;20090;-65
2022/04/22 11:10:24;;;;;;;2.08;1.30;;;20.10;48.10;;;;;;4340192;33;20214;-65
2022/04/22 11:12:54;;;;;;;4.03;1.50;;;20.10;48.10;;;;;;4326973;33;20222;-65
2022/04/22 11:15:41;;;;;;;3.60;1.65;;;20.10;48.10;;;;;;4340300;33;20091;-65
2022/04/22 11:18:10;;;;;;;7.55;1.75;;;20.10;48.00;;;;;;4326551;33;20068;-66
2022/04/22 11:20:37;;;;;;;3.95;1.63;;;20.10;48.00;;;;;;4340072;33;20088;-65
2022/04/22 11:23:05;;;;;;;4.25;1.35;;;20.10;48.20;;;;;;4340099;33;20203;-65
2022/04/22 11:25:33;;;;;;;2.78;1.35;;;20.10;48.00;;;;;;4339836;33;20516;-66
2022/04/22 11:27:59;;;;;;;4.03;1.67;;;20.10;47.90;;;;;;4339655;33;20135;-65
2022/04/22 11:30:26;;;;;;;3.28;1.48;;;20.10;48.00;;;;;;4339982;33;20095;-65
2022/04/22 11:32:56;;;;;;;3.88;1.50;;;20.10;48.00;;;;;;4339993;33;20095;-65
2022/04/22 11:35:28;;;;;;;3.55;1.48;;;20.10;48.00;;;;;;4340171;33;20229;-65
2022/04/22 11:38:04;;;;;;;3.42;1.60;;;20.10;48.00;;;;;;4340559;33;20135;-65
2022/04/22 11:40:38;;;;;;;10.70;2.60;;;20.10;48.10;;;;;;4340149;33;20218;-65
2022/04/22 11:43:16;;;;;;;9.48;2.10;;;20.10;48.10;;;;;;4340047;33;20094;-65
2022/04/22 11:45:43;;;;;;;6.35;2.08;;;20.10;48.10;;;;;;4326146;33;20076;-65
2022/04/22 11:48:11;;;;;;;5.78;1.70;;;20.20;48.20;;;;;;4339674;33;20475;-65
2022/04/22 11:50:42;;;;;;;7.70;1.60;;;20.20;48.20;;;;;;4339515;33;20096;-65
2022/04/22 11:53:18;;;;;;;4.40;1.60;;;20.20;48.30;;;;;;4339421;33;20120;-65
2022/04/22 11:55:45;;;;;;;8.98;2.08;;;20.20;48.30;;;;;;4326139;33;20069;-65
2022/04/22 11:58:23;;;;;;;5.00;1.67;;;20.20;48.30;;;;;;4338745;33;20092;-65
2022/04/22 12:06:21;;;;;;;6.80;1.70;;;20.20;48.40;;;;;;4336734;33;20200;-65
2022/04/22 12:08:50;;;;;;;10.18;1.80;;;20.30;48.50;;;;;;4338492;33;20514;-65
2022/04/22 12:11:16;;;;;;;6.13;1.80;;;20.30;48.50;;;;;;4338630;33;20091;-65
2022/04/22 12:13:42;;;;;;;7.60;1.67;;;20.30;48.50;;;;;;4338523;33;20077;-66
2022/04/22 12:16:07;;;;;;;5.60;1.85;;;20.30;48.40;;;;;;4338675;33;20372;-66
2022/04/22 12:18:37;;;;;;;3.15;1.50;;;20.30;48.50;;;;;;4338546;33;20074;-65
2022/04/22 12:21:07;;;;;;;7.25;1.80;;;20.30;48.40;;;;;;4338484;33;20087;-65
2022/04/22 12:23:39;;;;;;;3.25;1.38;;;20.30;48.40;;;;;;4339265;33;20549;-65
2022/04/22 12:26:12;;;;;;;10.68;2.03;;;20.30;48.40;;;;;;4325604;33;20139;-65
2022/04/22 12:28:59;;;;;;;5.38;1.90;;;20.30;48.40;;;;;;4339003;33;20143;-65
2022/04/22 12:31:26;;;;;;;7.63;1.85;;;20.30;48.40;;;;;;4329025;32;20104;-66
2022/04/22 12:33:59;;;;;;;6.22;1.67;;;20.30;48.40;;;;;;4349256;32;20116;-65
2022/04/22 12:36:26;;;;;;;6.45;1.80;;;20.30;48.60;;;;;;4353937;32;20124;-65
2022/04/22 12:38:52;;;;;;;5.35;1.77;;;20.30;48.70;;;;;;4354157;32;20072;-65
2022/04/22 12:41:25;;;;;;;5.85;1.95;;;20.30;48.90;;;;;;4353975;32;20382;-66
2022/04/22 12:43:55;;;;;;;6.85;1.83;;;20.30;49.10;;;;;;4353773;32;20088;-65
2022/04/22 12:52:20;;;;;;;5.57;1.92;;;20.30;49.30;;;;;;4352616;33;20080;-65
2022/04/22 12:54:48;;;;;;;5.85;2.10;;;20.40;49.70;;;;;;4351610;33;20091;-66
2022/04/22 12:57:18;;;;;;;8.13;2.20;;;20.40;49.50;;;;;;4352005;33;20521;-66
2022/04/22 12:59:55;;;;;;;5.63;2.15;;;20.40;49.60;;;;;;4349210;33;20096;-65
2022/04/22 13:02:29;;;;;;;5.55;1.80;;;20.40;49.60;;;;;;4352435;33;20096;-66
2022/04/22 13:05:00;;;;;;;4.25;1.95;;;20.40;49.70;;;;;;4351612;33;20175;-66
2022/04/22 13:07:40;;;;;;;8.13;2.13;;;20.40;49.60;;;;;;4352264;33;20069;-66
2022/04/22 13:10:11;;;;;;;6.90;2.28;;;20.40;49.70;;;;;;4352753;33;20083;-65
2022/04/22 13:12:39;;;;;;;6.07;2.25;;;20.40;49.70;;;;;;4350691;33;20588;-66
2022/04/22 13:15:12;;;;;;;4.20;1.85;;;20.40;49.70;;;;;;4352592;33;20072;-66
2022/04/22 13:17:43;;;;;;;5.50;1.90;;;20.40;49.70;;;;;;4352716;33;20146;-66
2022/04/22 13:20:12;;;;;;;7.15;2.33;;;20.40;49.70;;;;;;4339271;33;20184;-65
2022/04/22 13:22:39;;;;;;;7.20;2.00;;;20.40;49.70;;;;;;4352753;33;20072;-66
2022/04/22 13:25:05;;;;;;;5.10;2.30;;;20.50;49.70;;;;;;4353469;33;20096;-65
2022/04/22 13:27:31;;;;;;;5.45;2.20;;;20.40;49.70;;;;;;4340195;33;20234;-66
2022/04/22 13:29:57;;;;;;;7.60;2.30;;;20.40;49.70;;;;;;4353258;33;20076;-63
2022/04/22 13:32:23;;;;;;;7.22;1.95;;;20.40;49.70;;;;;;4353417;33;20068;-66
2022/04/22 13:34:50;;;;;;;7.38;2.20;;;20.40;49.70;;;;;;4352198;33;20138;-65
2022/04/22 13:37:16;;;;;;;6.28;2.03;;;20.40;49.70;;;;;;4352276;33;20548;-65
2022/04/22 13:39:42;;;;;;;6.40;2.17;;;20.40;49.70;;;;;;4338195;33;20486;-65
2022/04/22 13:42:08;;;;;;;6.38;2.05;;;20.40;49.70;;;;;;4351192;33;20151;-65
2022/04/22 13:52:48;;;;;;;8.27;2.05;;;20.40;49.70;;;;;;4354430;32;20519;-65
2022/04/22 13:55:15;;;;;;;6.93;2.35;;;20.40;49.70;;;;;;4354863;32;20080;-66
2022/04/22 13:57:40;;;;;;;5.90;2.30;;;20.40;49.70;;;;;;4341518;32;20478;-65
2022/04/22 14:00:07;;;;;;;4.43;1.65;;;20.40;49.70;;;;;;4355066;32;20479;-65
2022/04/22 14:02:33;;;;;;;4.72;1.98;;;20.40;49.80;;;;;;4354890;32;20469;-65